createdAt,value
2019-04-14T00:02:25.313Z,2.40
2019-04-14T00:04:55.127Z,2.50
2019-04-14T00:07:25.515Z,2.60
2019-04-14T00:09:54.877Z,2.60
2019-04-14T00:12:25.143Z,2.70
2019-04-14T00:14:55.410Z,2.80
2019-04-14T00:17:24.715Z,2.80
2019-04-14T00:19:56.815Z,2.80
2019-04-14T00:22:28.092Z,2.80
2019-04-14T00:24:57.531Z,2.70
2019-04-14T00:27:28.111Z,2.50
2019-04-14T00:29:58.978Z,2.30
2019-04-14T00:32:29.663Z,2.20
2019-04-14T00:35:16.748Z,2.00
2019-04-14T00:38:10.604Z,1.80
2019-04-14T00:40:45.452Z,1.70
2019-04-14T00:43:30.955Z,1.50
2019-04-14T00:46:09.964Z,1.40
2019-04-14T00:48:39.307Z,1.30
2019-04-14T00:51:09.194Z,1.20
2019-04-14T00:53:38.515Z,1.10
2019-04-14T00:56:08.423Z,1.00
2019-04-14T00:58:38.907Z,1.00
2019-04-14T01:01:09.053Z,1.10
2019-04-14T01:03:39.377Z,1.00
2019-04-14T01:06:09.699Z,1.00
2019-04-14T01:08:40.215Z,1.00
2019-04-14T01:11:09.809Z,1.00
2019-04-14T01:13:40.285Z,0.90
2019-04-14T01:16:15.570Z,0.90
2019-04-14T01:18:40.908Z,0.80
2019-04-14T01:21:11.041Z,0.70
2019-04-14T01:23:41.224Z,0.80
2019-04-14T01:26:11.782Z,0.70
2019-04-14T01:28:41.885Z,0.70
2019-04-14T01:31:11.987Z,0.70
2019-04-14T01:33:42.285Z,0.70
2019-04-14T01:36:12.669Z,0.70
2019-04-14T01:38:43.072Z,0.70
2019-04-14T01:41:14.996Z,0.70
2019-04-14T01:43:45.241Z,0.70
2019-04-14T01:46:20.982Z,0.60
2019-04-14T01:48:45.437Z,0.60
2019-04-14T01:51:33.571Z,0.60
2019-04-14T01:54:40.982Z,0.60
2019-04-14T01:57:26.369Z,0.50
2019-04-14T01:59:56.774Z,0.50
2019-04-14T02:02:27.050Z,0.40
2019-04-14T02:05:01.823Z,0.30
2019-04-14T02:07:30.307Z,0.30
2019-04-14T02:09:59.613Z,0.20
2019-04-14T02:12:30.125Z,0.10
2019-04-14T02:15:00.431Z,0.00
2019-04-14T02:17:30.742Z,0.00
2019-04-14T02:20:01.020Z,0.00
2019-04-14T02:28:52.740Z,-0.30
2019-04-14T02:31:46.872Z,-0.30
2019-04-14T02:34:28.410Z,-0.30
2019-04-14T02:36:58.661Z,-0.30
2019-04-14T02:42:17.376Z,-0.30
2019-04-14T02:44:33.644Z,-0.40
2019-04-14T02:47:38.859Z,-0.40
2019-04-14T02:49:34.819Z,-0.40
2019-04-14T02:51:56.056Z,-0.40
2019-04-14T02:54:51.864Z,-0.30
2019-04-14T02:57:01.315Z,-0.30
2019-04-14T02:59:37.279Z,-0.40
2019-04-14T03:04:37.468Z,-0.40
2019-04-14T03:07:19.178Z,-0.40
2019-04-14T03:12:09.509Z,-0.50
2019-04-14T03:17:43.331Z,-0.60
2019-04-14T03:20:27.323Z,-0.50
2019-04-14T03:23:02.615Z,-0.50
2019-04-14T03:26:02.867Z,-0.50
2019-04-14T03:36:44.732Z,-0.60
2019-04-14T03:38:45.209Z,-0.60
2019-04-14T03:41:25.687Z,-0.70
2019-04-14T03:43:41.404Z,-0.80
2019-04-14T03:46:27.451Z,-0.80
2019-04-14T03:53:48.724Z,-0.80
2019-04-14T03:56:14.901Z,-0.80
2019-04-14T03:58:44.415Z,-0.70
2019-04-14T04:01:14.998Z,-0.60
2019-04-14T04:03:45.504Z,-0.70
2019-04-14T04:06:15.957Z,-0.60
2019-04-14T04:08:48.520Z,-0.60
2019-04-14T04:11:19.264Z,-0.60
2019-04-14T04:13:49.855Z,-0.50
2019-04-14T04:16:33.289Z,-0.50
2019-04-14T04:19:13.966Z,-0.50
2019-04-14T04:22:02.123Z,-0.40
2019-04-14T04:24:43.280Z,-0.40
2019-04-14T04:27:50.491Z,-0.40
2019-04-14T04:30:36.268Z,-0.40
2019-04-14T04:33:13.341Z,-0.30
2019-04-14T04:35:56.486Z,-0.20
2019-04-14T04:38:33.457Z,-0.10
2019-04-14T04:41:03.761Z,0.00
2019-04-14T04:43:36.477Z,0.00
2019-04-14T04:46:06.859Z,0.10
2019-04-14T04:48:37.086Z,0.10
2019-04-14T04:51:07.218Z,0.20
2019-04-14T04:53:37.454Z,0.20
2019-04-14T04:56:08.017Z,0.30
2019-04-14T04:58:37.331Z,0.30
2019-04-14T05:01:09.938Z,0.40
2019-04-14T05:03:41.453Z,0.40
2019-04-14T05:06:28.804Z,0.50
2019-04-14T05:09:07.770Z,0.60
2019-04-14T05:11:42.735Z,0.60
2019-04-14T05:14:17.305Z,0.70
2019-04-14T05:16:46.519Z,0.80
2019-04-14T05:19:24.790Z,0.90
2019-04-14T05:21:47.386Z,0.90
2019-04-14T05:24:17.821Z,1.00
2019-04-14T05:26:48.474Z,1.10
2019-04-14T05:29:18.890Z,1.10
2019-04-14T05:31:49.066Z,1.20
2019-04-14T05:34:19.529Z,1.20
2019-04-14T05:36:49.927Z,1.30
2019-04-14T05:39:19.959Z,1.40
2019-04-14T05:42:02.104Z,1.40
2019-04-14T05:44:21.219Z,1.60
2019-04-14T05:46:51.426Z,1.60
2019-04-14T05:49:30.650Z,1.80
2019-04-14T05:51:52.424Z,1.80
2019-04-14T05:54:23.057Z,1.90
2019-04-14T05:56:53.661Z,1.90
2019-04-14T05:59:24.176Z,2.00
2019-04-14T06:01:54.530Z,2.10
2019-04-14T06:04:24.358Z,2.20
2019-04-14T06:06:53.767Z,2.30
2019-04-14T06:09:23.023Z,2.40
2019-04-14T06:11:52.470Z,2.50
2019-04-14T06:14:21.755Z,2.60
2019-04-14T06:16:51.128Z,2.60
2019-04-14T06:19:23.385Z,2.70
2019-04-14T06:21:52.652Z,2.80
2019-04-14T06:24:22.027Z,2.90
2019-04-14T06:26:51.371Z,3.00
2019-04-14T06:29:23.144Z,3.10
2019-04-14T06:32:10.068Z,3.20
2019-04-14T06:34:50.505Z,3.30
2019-04-14T06:37:35.217Z,3.50
2019-04-14T06:40:06.365Z,3.50
2019-04-14T06:42:35.834Z,3.70
2019-04-14T06:45:05.468Z,3.80
2019-04-14T06:47:35.020Z,3.80
2019-04-14T06:50:04.718Z,3.90
2019-04-14T06:52:35.103Z,4.00
2019-04-14T06:55:04.692Z,4.00
2019-04-14T06:57:34.236Z,4.10
2019-04-14T07:00:03.556Z,4.20
2019-04-14T07:02:34.091Z,4.30
2019-04-14T07:05:03.545Z,4.30
2019-04-14T07:07:32.763Z,4.40
2019-04-14T07:10:01.995Z,4.50
2019-04-14T07:12:31.468Z,4.50
2019-04-14T07:15:00.788Z,4.60
2019-04-14T07:17:30.160Z,4.70
2019-04-14T07:20:02.342Z,4.80
2019-04-14T07:22:32.199Z,4.90
2019-04-14T07:25:01.654Z,5.00
2019-04-14T07:27:31.119Z,5.00
2019-04-14T07:30:12.488Z,5.10
2019-04-14T07:32:51.468Z,5.20
2019-04-14T07:35:38.356Z,5.20
2019-04-14T07:38:18.627Z,5.30
2019-04-14T07:41:03.655Z,5.30
2019-04-14T07:43:41.440Z,5.40
2019-04-14T07:46:20.071Z,5.40
2019-04-14T07:49:11.747Z,5.50
2019-04-14T07:52:08.847Z,5.60
2019-04-14T07:54:43.757Z,5.60
2019-04-14T07:57:30.635Z,5.60
2019-04-14T08:00:09.020Z,5.60
2019-04-14T08:02:42.852Z,5.70
2019-04-14T08:05:18.644Z,5.80
2019-04-14T08:07:48.968Z,5.80
2019-04-14T08:10:18.297Z,5.90
2019-04-14T08:12:47.528Z,5.90
2019-04-14T08:15:16.747Z,6.00
2019-04-14T08:17:46.264Z,6.10
2019-04-14T08:20:26.952Z,6.20
2019-04-14T08:22:46.527Z,6.40
2019-04-14T08:25:15.743Z,6.40
2019-04-14T08:27:45.100Z,6.20
2019-04-14T08:30:14.800Z,6.30
2019-04-14T08:32:44.156Z,6.40
2019-04-14T08:35:13.397Z,6.60
2019-04-14T08:37:43.313Z,6.70
2019-04-14T08:40:13.779Z,6.80
2019-04-14T08:43:01.626Z,6.80
2019-04-14T08:45:46.747Z,6.80
2019-04-14T08:48:33.367Z,6.90
2019-04-14T08:51:10.683Z,6.70
2019-04-14T08:53:59.077Z,6.90
2019-04-14T08:56:47.179Z,6.90
2019-04-14T08:59:44.805Z,7.00
2019-04-14T09:02:31.504Z,7.20
2019-04-14T09:05:18.192Z,7.10
2019-04-14T09:08:03.860Z,7.10
2019-04-14T09:10:36.816Z,7.10
2019-04-14T09:13:06.058Z,7.10
2019-04-14T09:15:35.446Z,7.30
2019-04-14T09:18:05.494Z,7.40
2019-04-14T09:20:34.804Z,7.50
2019-04-14T09:23:03.991Z,7.60
2019-04-14T09:25:33.424Z,7.60
2019-04-14T09:28:02.690Z,7.50
2019-04-14T09:30:31.956Z,7.70
2019-04-14T09:33:01.340Z,7.80
2019-04-14T09:35:30.667Z,7.90
2019-04-14T09:37:59.944Z,7.90
2019-04-14T09:40:29.300Z,8.10
2019-04-14T09:43:00.649Z,8.20
2019-04-14T09:45:30.104Z,8.20
2019-04-14T09:47:59.475Z,8.30
2019-04-14T09:50:29.685Z,8.30
2019-04-14T09:52:59.153Z,8.50
2019-04-14T09:55:28.412Z,8.50
2019-04-14T09:57:57.675Z,8.70
2019-04-14T10:00:27.078Z,8.90
2019-04-14T10:02:56.364Z,8.80
2019-04-14T10:05:25.663Z,8.80
2019-04-14T10:07:54.819Z,8.80
2019-04-14T10:10:24.207Z,8.90
2019-04-14T10:12:53.463Z,9.10
2019-04-14T10:15:22.876Z,9.20
2019-04-14T10:17:52.232Z,9.20
2019-04-14T10:20:21.604Z,9.30
2019-04-14T10:22:50.908Z,9.30
2019-04-14T10:25:20.308Z,9.40
2019-04-14T10:27:50.340Z,9.50
2019-04-14T10:30:19.641Z,9.70
2019-04-14T10:32:49.367Z,9.50
2019-04-14T10:35:18.639Z,9.60
2019-04-14T10:37:48.053Z,9.50
2019-04-14T10:40:17.524Z,9.60
2019-04-14T10:42:46.885Z,9.60
2019-04-14T10:45:18.391Z,9.50
2019-04-14T10:47:47.461Z,9.70
2019-04-14T10:50:29.956Z,9.80
2019-04-14T10:52:48.764Z,10.00
2019-04-14T10:55:18.896Z,9.90
2019-04-14T10:57:48.157Z,10.10
2019-04-14T11:00:18.263Z,10.10
2019-04-14T11:02:47.738Z,10.20
2019-04-14T11:05:17.083Z,10.20
2019-04-14T11:07:46.479Z,10.30
2019-04-14T11:10:16.013Z,10.50
2019-04-14T11:12:45.576Z,10.50
2019-04-14T11:15:15.615Z,10.50
2019-04-14T11:17:44.953Z,10.50
2019-04-14T11:20:14.321Z,10.50
2019-04-14T11:22:43.595Z,10.50
2019-04-14T11:25:12.980Z,10.70
2019-04-14T11:27:42.417Z,10.80
2019-04-14T11:30:13.651Z,10.80
2019-04-14T11:32:52.528Z,11.00
2019-04-14T11:35:32.764Z,11.10
2019-04-14T11:38:39.394Z,11.10
2019-04-14T11:41:12.263Z,10.90
2019-04-14T11:43:41.791Z,11.00
2019-04-14T11:46:11.158Z,11.10
2019-04-14T11:48:40.522Z,11.10
2019-04-14T11:51:09.877Z,11.30
2019-04-14T11:53:39.387Z,11.40
2019-04-14T11:56:09.705Z,11.40
2019-04-14T11:58:39.236Z,11.60
2019-04-14T12:01:29.015Z,11.60
2019-04-14T12:04:07.028Z,11.50
2019-04-14T12:07:07.581Z,11.50
2019-04-14T12:09:40.996Z,11.60
2019-04-14T12:12:10.972Z,11.80
2019-04-14T12:14:40.463Z,11.70
2019-04-14T12:17:11.709Z,11.80
2019-04-14T12:19:41.368Z,12.10
2019-04-14T12:22:10.743Z,12.30
2019-04-14T12:24:40.254Z,12.20
2019-04-14T12:27:09.830Z,12.20
2019-04-14T12:29:39.188Z,12.20
2019-04-14T12:32:10.753Z,12.30
2019-04-14T12:34:40.431Z,12.50
2019-04-14T12:37:09.924Z,12.60
2019-04-14T12:39:39.653Z,13.10
2019-04-14T12:42:27.046Z,13.80
2019-04-14T12:45:24.512Z,14.30
2019-04-14T12:48:11.507Z,14.70
2019-04-14T12:50:44.868Z,14.90
2019-04-14T12:53:14.278Z,15.30
2019-04-14T12:55:43.673Z,15.30
2019-04-14T12:58:14.177Z,15.10
2019-04-14T13:00:59.265Z,15.40
2019-04-14T13:03:30.051Z,15.40
2019-04-14T13:05:59.568Z,14.90
2019-04-14T13:08:29.337Z,13.90
2019-04-14T13:11:00.989Z,14.80
2019-04-14T13:13:30.821Z,14.70
2019-04-14T13:16:00.574Z,15.40
2019-04-14T13:18:30.316Z,15.00
2019-04-14T13:21:02.724Z,15.30
2019-04-14T13:23:33.709Z,14.90
2019-04-14T13:26:07.301Z,15.20
2019-04-14T13:28:36.775Z,15.60
2019-04-14T13:31:06.216Z,15.40
2019-04-14T13:33:38.068Z,15.60
2019-04-14T13:36:07.608Z,15.20
2019-04-14T13:38:37.106Z,15.40
2019-04-14T13:41:06.676Z,15.50
2019-04-14T13:43:36.594Z,15.50
2019-04-14T13:46:05.954Z,15.80
2019-04-14T13:48:35.385Z,15.70
2019-04-14T13:51:05.004Z,15.40
2019-04-14T13:53:34.455Z,15.60
2019-04-14T13:56:03.870Z,15.50
2019-04-14T13:58:33.448Z,15.60
2019-04-14T14:01:02.808Z,15.30
2019-04-14T14:03:32.220Z,15.50
2019-04-14T14:06:04.509Z,15.70
2019-04-14T14:08:33.894Z,15.80
2019-04-14T14:11:13.945Z,15.60
2019-04-14T14:13:49.664Z,15.10
2019-04-14T14:16:50.288Z,14.90
2019-04-14T14:19:26.945Z,15.00
2019-04-14T14:22:09.920Z,14.90
2019-04-14T14:25:03.036Z,15.20
2019-04-14T14:27:32.852Z,15.10
2019-04-14T14:30:03.091Z,15.10
2019-04-14T14:32:36.585Z,14.60
2019-04-14T14:35:06.860Z,14.70
2019-04-14T14:37:37.247Z,14.60
2019-04-14T14:40:06.739Z,14.50
2019-04-14T14:42:36.344Z,14.20
2019-04-14T14:45:16.980Z,14.00
2019-04-14T14:48:17.544Z,13.50
2019-04-14T14:50:56.468Z,13.20
2019-04-14T14:53:25.837Z,12.80
2019-04-14T14:55:55.304Z,12.30
2019-04-14T14:58:24.953Z,12.10
2019-04-14T15:00:54.708Z,12.00
2019-04-14T15:03:24.108Z,12.20
2019-04-14T15:05:53.713Z,12.20
2019-04-14T15:08:23.069Z,12.10
2019-04-14T15:10:52.493Z,12.20
2019-04-14T15:13:21.978Z,12.40
2019-04-14T15:15:51.511Z,12.70
2019-04-14T15:18:21.372Z,12.80
2019-04-14T15:20:51.051Z,12.70
2019-04-14T15:23:25.383Z,12.80
2019-04-14T15:25:51.447Z,12.50
2019-04-14T15:28:20.897Z,12.30
2019-04-14T15:30:50.397Z,12.20
2019-04-14T15:33:19.698Z,12.10
2019-04-14T15:35:49.161Z,12.00
2019-04-14T15:38:18.501Z,12.00
2019-04-14T15:40:47.883Z,11.80
2019-04-14T15:43:17.358Z,11.70
2019-04-14T15:45:46.710Z,11.50
2019-04-14T15:48:16.203Z,11.50
2019-04-14T15:50:46.149Z,11.20
2019-04-14T15:53:15.620Z,11.30
2019-04-14T15:55:44.949Z,11.30
2019-04-14T15:58:25.792Z,11.30
2019-04-14T16:01:29.356Z,11.10
2019-04-14T16:04:03.619Z,11.00
2019-04-14T16:06:42.491Z,10.90
2019-04-14T16:09:24.647Z,10.80
2019-04-14T16:12:02.061Z,10.80
2019-04-14T16:14:49.835Z,10.80
2019-04-14T16:17:36.759Z,10.70
2019-04-14T16:20:09.237Z,10.80
2019-04-14T16:22:39.091Z,10.70
2019-04-14T16:25:10.441Z,10.70
2019-04-14T16:27:49.367Z,10.70
2019-04-14T16:30:37.770Z,10.60
2019-04-14T16:33:12.880Z,10.60
2019-04-14T16:35:42.521Z,10.50
2019-04-14T16:38:12.144Z,10.50
2019-04-14T16:40:41.513Z,10.50
2019-04-14T16:43:11.037Z,10.40
2019-04-14T16:45:40.545Z,10.40
2019-04-14T16:48:10.357Z,10.40
2019-04-14T16:50:39.672Z,10.40
2019-04-14T16:53:16.871Z,10.40
2019-04-14T16:55:55.632Z,10.30
2019-04-14T16:58:35.647Z,10.30
2019-04-14T17:01:08.181Z,10.20
2019-04-14T17:03:37.683Z,10.20
2019-04-14T17:06:07.128Z,10.10
2019-04-14T17:08:38.503Z,10.10
2019-04-14T17:11:11.617Z,10.00
2019-04-14T17:13:43.556Z,9.90
2019-04-14T17:16:38.382Z,9.90
2019-04-14T17:19:19.201Z,9.90
2019-04-14T17:22:08.807Z,9.80
2019-04-14T17:24:57.860Z,9.70
2019-04-14T17:27:46.298Z,9.70
2019-04-14T17:30:34.715Z,9.70
2019-04-14T17:33:18.223Z,9.50
2019-04-14T17:35:52.634Z,9.50
2019-04-14T17:38:29.444Z,9.40
2019-04-14T17:41:15.817Z,9.30
2019-04-14T17:44:01.408Z,9.30
2019-04-14T17:46:44.810Z,9.20
2019-04-14T17:49:35.942Z,9.10
2019-04-14T17:52:23.047Z,9.10
2019-04-14T17:54:59.242Z,9.00
2019-04-14T17:57:46.536Z,8.90
2019-04-14T18:00:34.355Z,8.80
2019-04-14T18:03:12.860Z,8.70
2019-04-14T18:06:04.331Z,8.60
2019-04-14T18:08:58.795Z,8.50
2019-04-14T18:11:56.326Z,8.50
2019-04-14T18:21:00.783Z,8.10
2019-04-14T18:23:29.997Z,7.80
2019-04-14T18:26:00.822Z,7.70
2019-04-14T18:28:48.302Z,7.60
2019-04-14T18:31:30.823Z,7.40
2019-04-14T18:34:17.752Z,7.30
2019-04-14T18:36:57.740Z,7.40
2019-04-14T18:39:46.237Z,7.30
2019-04-14T18:42:19.959Z,7.20
2019-04-14T18:45:14.104Z,7.10
2019-04-14T18:47:58.301Z,7.10
2019-04-14T18:50:42.500Z,7.20
2019-04-14T18:53:20.155Z,7.10
2019-04-14T18:56:14.540Z,7.20
2019-04-14T18:59:01.416Z,7.10
2019-04-14T19:01:36.195Z,6.90
2019-04-14T19:04:05.168Z,6.90
2019-04-14T19:06:34.417Z,6.80
2019-04-14T19:09:05.015Z,6.80
2019-04-14T19:11:55.886Z,6.80
2019-04-14T19:14:30.920Z,6.80
2019-04-14T19:17:19.116Z,6.70
2019-04-14T19:20:01.307Z,6.60
2019-04-14T19:22:24.992Z,6.60
2019-04-14T19:25:06.928Z,6.60
2019-04-14T19:27:25.353Z,6.50
2019-04-14T19:29:54.619Z,6.40
2019-04-14T19:32:24.155Z,6.30
2019-04-14T19:34:54.146Z,6.20
2019-04-14T19:37:23.336Z,6.10
2019-04-14T19:39:52.744Z,6.00
2019-04-14T19:42:22.059Z,5.90
2019-04-14T19:44:52.039Z,5.90
2019-04-14T19:47:21.300Z,5.90
2019-04-14T19:49:51.570Z,5.80
2019-04-14T19:52:22.012Z,5.70
2019-04-14T19:54:51.407Z,5.60
2019-04-14T19:57:20.763Z,5.50
2019-04-14T19:59:50.259Z,5.60
2019-04-14T20:02:19.732Z,5.50
2019-04-14T20:04:49.135Z,5.50
2019-04-14T20:07:18.900Z,5.50
2019-04-14T20:09:48.269Z,5.50
2019-04-14T20:12:18.120Z,5.50
2019-04-14T20:14:47.700Z,5.40
2019-04-14T20:17:39.220Z,5.30
2019-04-14T20:20:27.238Z,5.30
2019-04-14T20:23:28.388Z,5.30
2019-04-14T20:26:16.700Z,5.30
2019-04-14T20:28:49.372Z,5.20
2019-04-14T20:31:39.079Z,5.20
2019-04-14T20:34:11.344Z,5.20
2019-04-14T20:36:41.565Z,5.20
2019-04-14T20:39:20.627Z,5.10
2019-04-14T20:41:50.115Z,5.00
2019-04-14T20:44:22.000Z,5.10
2019-04-14T20:46:51.916Z,5.00
2019-04-14T20:49:23.760Z,5.00
2019-04-14T20:51:53.060Z,5.00
2019-04-14T20:54:22.408Z,5.00
2019-04-14T20:56:51.792Z,4.80
2019-04-14T20:59:21.268Z,4.70
2019-04-14T21:01:57.196Z,4.70
2019-04-14T21:04:45.614Z,4.60
2019-04-14T21:07:40.061Z,4.60
2019-04-14T21:10:25.730Z,4.70
2019-04-14T21:13:23.262Z,4.60
2019-04-14T21:16:12.516Z,4.60
2019-04-14T21:18:41.028Z,4.40
2019-04-14T21:21:28.784Z,4.40
2019-04-14T21:24:06.408Z,4.40
2019-04-14T21:27:03.922Z,4.30
2019-04-14T21:29:54.531Z,4.30
2019-04-14T21:32:27.092Z,4.30
2019-04-14T21:35:21.182Z,4.30
2019-04-14T21:38:03.993Z,4.20
2019-04-14T21:40:52.269Z,4.20
2019-04-14T21:43:22.309Z,4.20
2019-04-14T21:45:51.557Z,4.20
2019-04-14T21:48:21.432Z,4.00
2019-04-14T21:50:50.782Z,4.00
2019-04-14T21:53:22.249Z,3.90
2019-04-14T21:55:51.433Z,4.00
2019-04-14T21:58:40.059Z,3.90
2019-04-14T22:01:52.662Z,4.00
2019-04-14T22:04:39.972Z,3.90
2019-04-14T22:07:31.031Z,3.90
2019-04-14T22:10:06.763Z,3.90
2019-04-14T22:12:36.179Z,3.90
2019-04-14T22:15:05.590Z,3.90
2019-04-14T22:17:37.121Z,4.00
2019-04-14T22:20:06.706Z,3.80
2019-04-14T22:22:35.940Z,3.90
2019-04-14T22:25:05.833Z,3.80
2019-04-14T22:27:35.100Z,3.80
2019-04-14T22:30:06.344Z,3.80
2019-04-14T22:32:35.734Z,3.80
2019-04-14T22:38:01.081Z,3.70
2019-04-14T22:40:31.355Z,3.60
2019-04-14T22:43:00.629Z,3.60
2019-04-14T22:45:30.247Z,3.50
2019-04-14T22:47:59.530Z,3.50
2019-04-14T22:50:28.822Z,3.50
2019-04-14T22:52:58.187Z,3.40
2019-04-14T22:55:28.290Z,3.40
2019-04-14T22:57:57.576Z,3.40
2019-04-14T23:00:50.045Z,3.30
2019-04-14T23:03:34.890Z,3.20
2019-04-14T23:06:26.044Z,3.20
2019-04-14T23:09:00.003Z,3.20
2019-04-14T23:11:51.410Z,3.10
2019-04-14T23:14:39.578Z,3.10
2019-04-14T23:17:33.909Z,3.00
2019-04-14T23:20:13.601Z,2.90
2019-04-14T23:23:00.361Z,2.90
2019-04-14T23:25:29.498Z,2.80
2019-04-14T23:27:58.736Z,2.70
2019-04-14T23:30:28.524Z,2.70
2019-04-14T23:32:57.838Z,2.70
2019-04-14T23:35:30.137Z,2.60
2019-04-14T23:37:59.391Z,2.50
2019-04-14T23:40:28.791Z,2.50
2019-04-14T23:42:58.228Z,2.50
2019-04-14T23:45:27.563Z,2.40
2019-04-14T23:47:56.898Z,2.40
2019-04-14T23:50:27.377Z,2.40
2019-04-14T23:52:56.614Z,2.30
2019-04-14T23:55:25.651Z,2.20
2019-04-14T23:57:55.135Z,2.20
